createdAt,value
2023-04-13T00:01:05.385Z,9.10
2023-04-13T00:04:09.956Z,9.30
2023-04-13T00:07:14.895Z,8.30
2023-04-13T00:10:19.148Z,9.30
2023-04-13T00:13:22.448Z,8.73
2023-04-13T00:16:27.051Z,9.47
2023-04-13T00:19:31.490Z,9.43
2023-04-13T00:22:34.568Z,8.43
2023-04-13T00:25:37.750Z,9.27
2023-04-13T00:28:41.083Z,9.67
2023-04-13T00:31:44.098Z,8.83
2023-04-13T00:34:48.549Z,11.03
2023-04-13T00:37:51.868Z,11.00
2023-04-13T00:40:55.771Z,11.57
2023-04-13T00:43:59.252Z,10.87
2023-04-13T00:47:04.821Z,11.83
2023-04-13T00:50:10.177Z,11.30
2023-04-13T00:53:14.061Z,10.93
2023-04-13T00:56:17.278Z,10.80
2023-04-13T00:59:20.958Z,11.53
2023-04-13T01:02:25.634Z,11.10
2023-04-13T01:05:38.685Z,11.20
2023-04-13T01:08:49.201Z,12.93
2023-04-13T01:11:59.505Z,12.27
2023-04-13T01:15:09.055Z,12.13
2023-04-13T01:18:15.613Z,12.83
2023-04-13T01:21:21.764Z,13.27
2023-04-13T01:24:34.080Z,12.17
2023-04-13T01:27:46.973Z,11.77
2023-04-13T01:30:52.255Z,12.43
2023-04-13T01:33:55.447Z,12.50
2023-04-13T01:37:04.622Z,11.17
2023-04-13T01:40:11.298Z,11.63
2023-04-13T01:43:15.796Z,12.47
2023-04-13T01:46:23.059Z,11.60
2023-04-13T01:49:26.381Z,12.23
2023-04-13T01:52:30.628Z,12.80
2023-04-13T01:55:33.872Z,13.67
2023-04-13T01:58:40.550Z,13.27
2023-04-13T02:01:43.730Z,14.00
2023-04-13T02:04:47.000Z,12.37
2023-04-13T02:07:50.061Z,12.20
2023-04-13T02:10:53.173Z,12.77
2023-04-13T02:13:59.787Z,11.73
2023-04-13T02:17:02.992Z,12.10
2023-04-13T02:20:11.279Z,13.43
2023-04-13T02:23:15.870Z,12.33
2023-04-13T02:26:19.654Z,12.47
2023-04-13T02:29:24.123Z,12.10
2023-04-13T02:32:27.987Z,11.97
2023-04-13T02:35:31.190Z,11.13
2023-04-13T02:38:34.346Z,10.70
2023-04-13T02:41:37.880Z,10.13
2023-04-13T02:44:42.296Z,9.83
2023-04-13T02:47:45.583Z,9.37
2023-04-13T02:50:49.379Z,9.27
2023-04-13T02:53:52.960Z,9.27
2023-04-13T02:56:58.540Z,9.47
2023-04-13T03:00:07.877Z,10.20
2023-04-13T03:03:11.061Z,10.30
2023-04-13T03:06:14.751Z,10.90
2023-04-13T03:09:18.067Z,10.63
2023-04-13T03:12:21.255Z,9.87
2023-04-13T03:15:25.872Z,9.80
2023-04-13T03:18:29.216Z,8.10
2023-04-13T03:21:32.556Z,11.13
2023-04-13T03:24:35.921Z,9.20
2023-04-13T03:27:39.023Z,9.30
2023-04-13T03:30:43.642Z,8.33
2023-04-13T03:33:46.894Z,8.33
2023-04-13T03:36:50.083Z,7.77
2023-04-13T03:39:53.100Z,8.60
2023-04-13T03:42:56.190Z,7.93
2023-04-13T03:46:00.919Z,8.40
2023-04-13T03:49:04.394Z,6.40
2023-04-13T03:52:07.416Z,6.73
2023-04-13T03:55:10.896Z,6.50
2023-04-13T03:58:13.997Z,6.53
2023-04-13T04:01:18.400Z,6.93
2023-04-13T04:04:21.684Z,7.03
2023-04-13T04:07:24.890Z,6.00
2023-04-13T04:10:28.259Z,7.07
2023-04-13T04:13:31.474Z,6.77
2023-04-13T04:16:37.185Z,6.50
2023-04-13T04:19:40.491Z,6.67
2023-04-13T04:22:44.911Z,6.17
2023-04-13T04:25:48.555Z,6.43
2023-04-13T04:28:52.014Z,6.63
2023-04-13T04:31:56.693Z,6.90
2023-04-13T04:34:59.742Z,7.27
2023-04-13T04:38:05.214Z,6.57
2023-04-13T04:41:08.794Z,7.10
2023-04-13T04:44:12.817Z,7.77
2023-04-13T04:47:19.055Z,10.00
2023-04-13T04:50:24.577Z,8.20
2023-04-13T04:53:27.592Z,8.77
2023-04-13T04:56:30.862Z,7.77
2023-04-13T04:59:33.942Z,8.57
2023-04-13T05:02:38.613Z,8.73
2023-04-13T05:05:42.092Z,10.00
2023-04-13T05:08:48.642Z,9.43
2023-04-13T05:11:51.683Z,10.57
2023-04-13T05:14:54.770Z,13.30
2023-04-13T05:18:00.521Z,11.77
2023-04-13T05:21:03.609Z,11.77
2023-04-13T05:24:07.104Z,11.47
2023-04-13T05:27:11.822Z,10.53
2023-04-13T05:30:15.402Z,11.53
2023-04-13T05:33:20.631Z,15.53
2023-04-13T05:36:23.682Z,12.83
2023-04-13T05:39:27.512Z,12.10
2023-04-13T05:42:30.599Z,12.03
2023-04-13T05:45:34.214Z,11.63
2023-04-13T05:48:38.732Z,14.00
2023-04-13T05:51:41.846Z,13.10
2023-04-13T05:54:44.984Z,11.60
2023-04-13T05:57:48.180Z,13.17
2023-04-13T06:00:51.253Z,11.40
2023-04-13T06:03:56.137Z,12.87
2023-04-13T06:07:02.573Z,10.50
2023-04-13T06:10:06.636Z,11.43
2023-04-13T06:13:09.790Z,10.80
2023-04-13T06:16:13.256Z,11.57
2023-04-13T06:19:17.729Z,11.23
2023-04-13T06:22:20.736Z,11.37
2023-04-13T06:25:23.808Z,9.47
2023-04-13T06:28:29.240Z,10.07
2023-04-13T06:31:32.839Z,10.67
2023-04-13T06:34:37.349Z,11.10
2023-04-13T06:37:40.543Z,10.67
2023-04-13T06:40:43.493Z,9.57
2023-04-13T06:43:47.624Z,8.67
2023-04-13T06:46:50.832Z,7.97
2023-04-13T06:49:55.540Z,8.57
2023-04-13T06:53:00.522Z,8.80
2023-04-13T06:56:03.951Z,9.23
2023-04-13T06:59:07.399Z,8.07
2023-04-13T07:02:10.956Z,8.33
2023-04-13T07:05:15.589Z,8.33
2023-04-13T07:08:19.475Z,9.03
2023-04-13T07:11:24.465Z,8.10
2023-04-13T07:14:27.571Z,7.20
2023-04-13T07:17:31.463Z,7.13
2023-04-13T07:20:36.440Z,6.40
2023-04-13T07:23:39.604Z,6.07
2023-04-13T07:26:42.626Z,5.73
2023-04-13T07:29:45.856Z,6.50
2023-04-13T07:32:48.959Z,5.87
2023-04-13T07:35:55.456Z,8.17
2023-04-13T07:38:58.893Z,6.47
2023-04-13T07:42:02.661Z,6.40
2023-04-13T07:45:06.916Z,6.07
2023-04-13T07:48:10.046Z,6.30
2023-04-13T07:51:19.243Z,6.57
2023-04-13T07:54:22.893Z,6.10
2023-04-13T07:57:26.232Z,5.53
2023-04-13T08:00:29.276Z,7.20
2023-04-13T08:03:33.028Z,5.73
2023-04-13T08:06:37.586Z,5.83
2023-04-13T08:09:42.046Z,5.20
2023-04-13T08:12:45.238Z,4.90
2023-04-13T08:15:49.333Z,5.00
2023-04-13T08:18:52.863Z,4.23
2023-04-13T08:21:57.323Z,4.33
2023-04-13T08:25:00.464Z,4.50
2023-04-13T08:28:03.513Z,4.30
2023-04-13T08:31:07.510Z,3.87
2023-04-13T08:34:12.974Z,4.03
2023-04-13T08:37:17.383Z,4.07
2023-04-13T08:40:20.940Z,4.20
2023-04-13T08:43:24.203Z,4.33
2023-04-13T08:46:30.962Z,3.23
2023-04-13T08:49:34.588Z,3.30
2023-04-13T08:52:42.917Z,3.60
2023-04-13T08:55:47.461Z,3.27
2023-04-13T08:58:53.857Z,4.90
2023-04-13T09:01:58.686Z,3.40
2023-04-13T09:05:06.327Z,3.00
2023-04-13T09:08:13.674Z,3.23
2023-04-13T09:11:16.814Z,3.83
2023-04-13T09:14:22.136Z,2.90
2023-04-13T09:17:27.190Z,2.73
2023-04-13T09:20:30.797Z,2.80
2023-04-13T09:23:35.529Z,5.43
2023-04-13T09:26:42.506Z,3.40
2023-04-13T09:29:51.575Z,3.03
2023-04-13T09:33:07.376Z,2.90
2023-04-13T09:36:11.741Z,2.73
2023-04-13T09:39:17.486Z,2.57
2023-04-13T09:42:21.029Z,2.53
2023-04-13T09:45:24.468Z,3.07
2023-04-13T09:48:27.594Z,2.40
2023-04-13T09:51:38.598Z,3.77
2023-04-13T09:54:43.138Z,2.60
2023-04-13T09:57:46.587Z,2.97
2023-04-13T10:00:50.261Z,2.80
2023-04-13T10:03:53.617Z,3.07
2023-04-13T10:06:57.304Z,3.07
2023-04-13T10:10:01.892Z,2.77
2023-04-13T10:13:17.964Z,2.53
2023-04-13T10:16:38.134Z,2.93
2023-04-13T10:19:44.735Z,4.77
2023-04-13T10:22:48.326Z,4.47
2023-04-13T10:25:54.358Z,2.73
2023-04-13T10:28:57.804Z,2.97
2023-04-13T10:32:03.553Z,2.50
2023-04-13T10:35:11.629Z,2.33
2023-04-13T10:38:16.090Z,2.50
2023-04-13T10:41:28.417Z,2.90
2023-04-13T10:44:45.424Z,2.57
2023-04-13T10:47:49.247Z,9.57
2023-04-13T10:50:59.198Z,2.53
2023-04-13T10:54:05.557Z,2.87
2023-04-13T10:57:11.484Z,2.67
2023-04-13T11:00:25.439Z,2.30
2023-04-13T11:03:34.193Z,2.60
2023-04-13T11:06:40.170Z,2.70
2023-04-13T11:09:45.501Z,2.63
2023-04-13T11:12:55.718Z,3.87
2023-04-13T11:16:03.258Z,2.47
2023-04-13T11:19:06.848Z,2.40
2023-04-13T11:22:13.232Z,2.73
2023-04-13T11:25:16.574Z,3.03
2023-04-13T11:28:22.655Z,2.40
2023-04-13T11:31:37.406Z,2.70
2023-04-13T11:34:40.459Z,2.20
2023-04-13T11:37:44.601Z,2.60
2023-04-13T11:40:48.311Z,2.83
2023-04-13T11:43:52.933Z,2.80
2023-04-13T11:46:57.410Z,3.27
2023-04-13T11:50:00.707Z,3.13
2023-04-13T11:53:04.592Z,3.17
2023-04-13T11:56:08.476Z,3.37
2023-04-13T11:59:13.365Z,2.57
2023-04-13T12:02:21.778Z,2.50
2023-04-13T12:05:28.074Z,3.90
2023-04-13T12:08:32.223Z,4.20
2023-04-13T12:11:44.262Z,2.60
2023-04-13T12:15:15.351Z,2.57
2023-04-13T12:18:23.769Z,3.00
2023-04-13T12:21:29.263Z,3.00
2023-04-13T12:24:34.055Z,3.10
2023-04-13T12:27:43.140Z,2.60
2023-04-13T12:30:48.704Z,2.93
2023-04-13T12:33:52.348Z,2.60
2023-04-13T12:36:55.436Z,2.20
2023-04-13T12:39:58.536Z,2.23
2023-04-13T12:43:01.974Z,2.83
2023-04-13T12:46:06.697Z,2.40
2023-04-13T12:49:09.884Z,2.20
2023-04-13T12:52:12.917Z,2.97
2023-04-13T12:55:15.951Z,2.57
2023-04-13T12:58:19.021Z,2.60
2023-04-13T13:01:23.489Z,2.70
2023-04-13T13:04:30.007Z,2.37
2023-04-13T13:07:33.338Z,2.50
2023-04-13T13:10:36.965Z,2.50
2023-04-13T13:13:40.035Z,2.10
2023-04-13T13:16:44.622Z,2.30
2023-04-13T13:19:47.696Z,2.37
2023-04-13T13:22:50.742Z,2.50
2023-04-13T13:26:17.880Z,2.13
2023-04-13T13:29:19.236Z,2.20
2023-04-13T13:32:23.856Z,2.37
2023-04-13T13:35:26.896Z,3.07
2023-04-13T13:38:30.000Z,3.10
2023-04-13T13:41:33.209Z,2.40
2023-04-13T13:44:37.079Z,2.37
2023-04-13T13:47:41.948Z,2.43
2023-04-13T13:50:45.104Z,2.73
2023-04-13T13:53:48.154Z,2.73
2023-04-13T13:56:51.605Z,2.43
2023-04-13T13:59:54.797Z,2.47
2023-04-13T14:03:00.032Z,2.60
2023-04-13T14:06:03.573Z,2.47
2023-04-13T14:09:06.833Z,2.10
2023-04-13T14:12:09.915Z,2.17
2023-04-13T14:15:14.486Z,2.17
2023-04-13T14:18:19.005Z,2.50
2023-04-13T14:21:23.092Z,2.23
2023-04-13T14:24:26.633Z,1.97
2023-04-13T14:27:29.678Z,2.67
2023-04-13T14:30:32.897Z,2.10
2023-04-13T14:33:37.447Z,1.90
2023-04-13T14:36:40.550Z,2.03
2023-04-13T14:39:43.590Z,3.03
2023-04-13T14:42:46.692Z,2.53
2023-04-13T14:45:53.749Z,3.60
2023-04-13T14:48:58.457Z,4.30
2023-04-13T14:52:01.567Z,3.10
2023-04-13T14:55:05.444Z,3.90
2023-04-13T14:58:08.562Z,2.60
2023-04-13T15:01:18.358Z,2.47
2023-04-13T15:04:23.286Z,2.40
2023-04-13T15:07:29.438Z,2.27
2023-04-13T15:10:34.817Z,3.07
2023-04-13T15:13:38.352Z,2.47
2023-04-13T15:16:41.534Z,2.30
2023-04-13T15:19:46.112Z,2.30
2023-04-13T15:22:49.332Z,3.50
2023-04-13T15:25:52.354Z,2.90
2023-04-13T15:28:55.432Z,2.50
2023-04-13T15:32:00.343Z,3.77
2023-04-13T15:35:05.105Z,3.00
2023-04-13T15:38:09.366Z,3.10
2023-04-13T15:41:12.677Z,2.17
2023-04-13T15:44:15.851Z,2.50
2023-04-13T15:47:18.853Z,2.27
2023-04-13T15:50:25.064Z,2.73
2023-04-13T15:53:28.216Z,3.30
2023-04-13T15:56:31.307Z,3.30
2023-04-13T15:59:34.789Z,2.30
2023-04-13T16:02:38.529Z,2.77
2023-04-13T16:05:43.127Z,2.33
2023-04-13T16:08:46.271Z,2.33
2023-04-13T16:11:50.817Z,2.60
2023-04-13T16:14:56.070Z,2.80
2023-04-13T16:17:59.141Z,2.23
2023-04-13T16:21:04.185Z,2.43
2023-04-13T16:24:08.458Z,2.60
2023-04-13T16:27:11.683Z,2.50
2023-04-13T16:30:17.424Z,2.23
2023-04-13T16:33:20.422Z,2.97
2023-04-13T16:36:25.049Z,2.93
2023-04-13T16:39:28.050Z,2.57
2023-04-13T16:42:31.554Z,2.40
2023-04-13T16:45:34.563Z,2.87
2023-04-13T16:48:37.634Z,3.20
2023-04-13T16:51:42.189Z,3.30
2023-04-13T16:54:46.228Z,3.17
2023-04-13T16:57:49.369Z,3.00
2023-04-13T17:00:53.498Z,3.60
2023-04-13T17:03:58.365Z,2.73
2023-04-13T17:07:03.518Z,2.90
2023-04-13T17:10:08.145Z,4.50
2023-04-13T17:13:11.268Z,2.50
2023-04-13T17:16:14.462Z,2.90
2023-04-13T17:19:18.956Z,3.20
2023-04-13T17:22:23.855Z,3.37
2023-04-13T17:25:27.134Z,2.73
2023-04-13T17:28:30.151Z,2.83
2023-04-13T17:31:33.306Z,3.20
2023-04-13T17:34:36.363Z,4.77
2023-04-13T17:37:40.859Z,2.70
2023-04-13T17:40:44.919Z,2.87
2023-04-13T17:43:47.977Z,2.50
2023-04-13T17:46:52.751Z,2.80
2023-04-13T17:49:56.257Z,3.33
2023-04-13T17:53:03.996Z,4.13
2023-04-13T17:56:07.512Z,3.73
2023-04-13T17:59:13.729Z,3.80
2023-04-13T18:02:16.913Z,4.37
2023-04-13T18:05:20.538Z,3.10
2023-04-13T18:08:24.979Z,3.13
2023-04-13T18:11:27.990Z,3.20
2023-04-13T18:14:31.046Z,3.23
2023-04-13T18:17:35.557Z,3.67
2023-04-13T18:20:38.641Z,3.53
2023-04-13T18:23:43.046Z,3.47
2023-04-13T18:26:46.148Z,3.80
2023-04-13T18:29:49.285Z,3.53
2023-04-13T18:32:52.637Z,4.13
2023-04-13T18:35:55.806Z,4.37
2023-04-13T18:39:01.658Z,4.67
2023-04-13T18:42:04.851Z,5.63
2023-04-13T18:45:08.846Z,5.07
2023-04-13T18:48:12.002Z,5.40
2023-04-13T18:51:15.057Z,6.57
2023-04-13T18:54:19.647Z,10.07
2023-04-13T18:57:22.870Z,7.37
2023-04-13T19:00:26.146Z,9.23
2023-04-13T19:03:29.274Z,8.20
2023-04-13T19:06:32.515Z,12.07
2023-04-13T19:09:37.015Z,13.50
2023-04-13T19:12:40.061Z,14.37
2023-04-13T19:15:43.210Z,13.90
2023-04-13T19:18:46.322Z,12.67
2023-04-13T19:21:49.390Z,17.40
2023-04-13T19:24:53.910Z,16.53
2023-04-13T19:27:56.976Z,11.23
2023-04-13T19:31:00.037Z,12.67
2023-04-13T19:34:03.244Z,12.10
2023-04-13T19:37:07.789Z,11.47
2023-04-13T19:40:14.480Z,10.37
2023-04-13T19:43:22.310Z,9.93
2023-04-13T19:46:25.424Z,8.77
2023-04-13T19:49:28.611Z,8.47
2023-04-13T19:52:31.703Z,9.27
2023-04-13T19:55:36.308Z,7.57
2023-04-13T19:58:39.377Z,7.63
2023-04-13T20:01:45.776Z,6.57
2023-04-13T20:04:50.102Z,7.13
2023-04-13T20:07:53.370Z,6.57
2023-04-13T20:10:59.787Z,6.53
2023-04-13T20:14:03.980Z,6.37
2023-04-13T20:17:07.058Z,6.13
2023-04-13T20:20:11.149Z,6.10
2023-04-13T20:23:14.237Z,5.87
2023-04-13T20:26:18.639Z,5.87
2023-04-13T20:29:21.796Z,6.10
2023-04-13T20:32:25.018Z,6.43
2023-04-13T20:35:28.293Z,6.37
2023-04-13T20:38:31.382Z,6.20
2023-04-13T20:41:36.254Z,6.20
2023-04-13T20:44:44.650Z,7.53
2023-04-13T20:47:50.397Z,7.30
2023-04-13T20:50:53.633Z,7.37
2023-04-13T20:53:58.114Z,8.27
2023-04-13T20:57:02.903Z,8.93
2023-04-13T21:00:13.872Z,8.57
2023-04-13T21:03:18.432Z,8.00
2023-04-13T21:06:22.814Z,10.93
2023-04-13T21:09:26.164Z,9.17
2023-04-13T21:12:30.799Z,8.13
2023-04-13T21:15:33.851Z,8.77
2023-04-13T21:18:36.936Z,8.60
2023-04-13T21:21:40.031Z,8.77
2023-04-13T21:24:43.195Z,8.93
2023-04-13T21:27:47.626Z,10.03
2023-04-13T21:30:50.724Z,8.47
2023-04-13T21:33:54.689Z,7.97
2023-04-13T21:36:57.857Z,9.63
2023-04-13T21:40:01.142Z,7.77
2023-04-13T21:43:05.675Z,7.90
2023-04-13T21:46:08.738Z,7.63
2023-04-13T21:49:11.879Z,7.70
2023-04-13T21:52:14.947Z,8.40
2023-04-13T21:55:18.961Z,7.83
2023-04-13T21:58:23.538Z,8.90
2023-04-13T22:01:26.581Z,10.13
2023-04-13T22:04:30.254Z,9.00
2023-04-13T22:07:42.350Z,9.33
2023-04-13T22:10:46.174Z,8.63
2023-04-13T22:13:50.675Z,8.50
2023-04-13T22:16:54.222Z,8.67
2023-04-13T22:19:57.358Z,8.63
2023-04-13T22:23:00.457Z,8.47
2023-04-13T22:26:03.497Z,8.43
2023-04-13T22:29:08.326Z,8.77
2023-04-13T22:32:11.499Z,9.10
2023-04-13T22:35:14.776Z,9.70
2023-04-13T22:38:18.472Z,8.50
2023-04-13T22:41:21.966Z,9.57
2023-04-13T22:44:26.452Z,9.30
2023-04-13T22:47:29.551Z,9.80
2023-04-13T22:50:32.731Z,11.07
2023-04-13T22:53:35.986Z,10.13
2023-04-13T22:56:39.107Z,9.30
2023-04-13T22:59:43.837Z,9.17
2023-04-13T23:02:48.454Z,9.60
2023-04-13T23:05:51.781Z,9.60
2023-04-13T23:08:56.231Z,9.87
2023-04-13T23:12:00.016Z,9.50
2023-04-13T23:15:05.076Z,9.00
2023-04-13T23:18:08.389Z,8.70
2023-04-13T23:21:12.069Z,8.63
2023-04-13T23:24:15.471Z,9.70
2023-04-13T23:27:19.434Z,9.63
2023-04-13T23:30:23.916Z,8.53
2023-04-13T23:33:27.028Z,8.00
2023-04-13T23:36:30.051Z,8.00
2023-04-13T23:39:34.202Z,7.47
2023-04-13T23:42:37.456Z,6.73
2023-04-13T23:45:42.731Z,6.47
2023-04-13T23:48:46.260Z,7.10
2023-04-13T23:51:49.358Z,6.80
2023-04-13T23:54:52.402Z,6.80
2023-04-13T23:57:55.537Z,6.50
